createdAt,value
2022-09-21T00:02:17.125Z,10.94
2022-09-21T00:07:19.362Z,10.90
2022-09-21T00:12:21.655Z,10.94
2022-09-21T00:17:23.863Z,11.05
2022-09-21T00:22:26.050Z,11.04
2022-09-21T00:27:30.211Z,11.03
2022-09-21T00:32:33.681Z,11.29
2022-09-21T00:37:36.176Z,11.48
2022-09-21T00:42:38.150Z,11.40
2022-09-21T00:47:45.426Z,11.60
2022-09-21T00:52:55.553Z,11.77
2022-09-21T00:58:03.056Z,11.75
2022-09-21T01:03:06.679Z,11.81
2022-09-21T01:08:12.376Z,11.56
2022-09-21T01:13:46.012Z,11.63
2022-09-21T01:19:05.765Z,11.66
2022-09-21T01:24:24.621Z,11.72
2022-09-21T01:29:31.336Z,11.70
2022-09-21T01:34:59.711Z,11.92
2022-09-21T01:40:07.713Z,11.91
2022-09-21T01:45:12.325Z,11.91
2022-09-21T01:50:17.192Z,12.14
2022-09-21T01:55:28.317Z,11.91
2022-09-21T02:00:34.408Z,12.08
2022-09-21T02:05:36.796Z,11.88
2022-09-21T02:11:00.676Z,11.86
2022-09-21T02:16:21.263Z,12.29
2022-09-21T02:21:33.356Z,12.25
2022-09-21T02:26:45.516Z,12.31
2022-09-21T02:31:53.756Z,12.31
2022-09-21T02:37:02.173Z,12.08
2022-09-21T02:42:28.537Z,12.17
2022-09-21T02:47:46.487Z,12.20
2022-09-21T02:52:48.884Z,12.21
2022-09-21T02:57:50.890Z,12.25
2022-09-21T03:02:52.835Z,12.26
2022-09-21T03:07:54.708Z,12.38
2022-09-21T03:12:59.524Z,12.58
2022-09-21T03:18:02.453Z,12.45
2022-09-21T03:23:04.624Z,12.46
2022-09-21T03:28:06.846Z,12.27
2022-09-21T03:33:09.306Z,12.52
2022-09-21T03:38:11.764Z,12.48
2022-09-21T03:43:13.940Z,12.47
2022-09-21T03:48:16.914Z,12.48
2022-09-21T03:53:19.096Z,12.57
2022-09-21T03:58:22.153Z,12.63
2022-09-21T04:03:24.256Z,12.63
2022-09-21T04:08:26.425Z,12.69
2022-09-21T04:13:28.589Z,12.43
2022-09-21T04:18:30.478Z,12.43
2022-09-21T04:23:32.934Z,12.52
2022-09-21T04:28:34.873Z,12.45
2022-09-21T04:33:36.772Z,12.57
2022-09-21T04:38:38.580Z,12.48
2022-09-21T04:43:45.800Z,12.61
2022-09-21T04:48:48.896Z,12.48
2022-09-21T04:53:51.636Z,12.57
2022-09-21T04:58:53.631Z,12.72
2022-09-21T05:03:55.699Z,12.30
2022-09-21T05:09:16.192Z,12.53
2022-09-21T05:14:18.770Z,12.74
2022-09-21T05:19:20.765Z,13.03
2022-09-21T05:24:22.812Z,13.15
2022-09-21T05:29:25.102Z,13.14
2022-09-21T05:34:43.133Z,13.15
2022-09-21T05:39:45.356Z,13.22
2022-09-21T05:44:49.389Z,12.99
2022-09-21T05:50:18.260Z,13.30
2022-09-21T05:55:44.957Z,13.22
2022-09-21T06:01:15.190Z,13.37
2022-09-21T06:06:21.027Z,13.55
2022-09-21T06:11:22.908Z,13.62
2022-09-21T06:16:25.111Z,14.00
2022-09-21T06:21:27.217Z,14.08
2022-09-21T06:26:29.143Z,13.90
2022-09-21T06:31:31.088Z,14.33
2022-09-21T06:36:33.012Z,14.10
2022-09-21T06:41:35.057Z,13.95
2022-09-21T06:46:37.206Z,14.21
2022-09-21T06:51:39.269Z,14.12
2022-09-21T06:56:43.303Z,14.03
2022-09-21T07:01:45.486Z,14.38
2022-09-21T07:06:48.123Z,14.47
2022-09-21T07:11:50.133Z,14.39
2022-09-21T07:16:53.106Z,14.68
2022-09-21T07:21:55.160Z,14.65
2022-09-21T07:26:58.166Z,14.44
2022-09-21T07:32:00.119Z,14.93
2022-09-21T07:37:02.084Z,14.54
2022-09-21T07:42:04.038Z,14.79
2022-09-21T07:47:06.435Z,14.82
2022-09-21T07:52:11.028Z,15.28
2022-09-21T07:57:31.685Z,15.28
2022-09-21T08:02:33.622Z,15.38
2022-09-21T08:07:35.595Z,15.65
2022-09-21T08:12:37.487Z,15.51
2022-09-21T08:17:39.701Z,15.77
2022-09-21T08:22:41.610Z,15.98
2022-09-21T08:27:43.560Z,16.11
2022-09-21T08:32:51.553Z,16.82
2022-09-21T08:37:54.779Z,16.48
2022-09-21T08:43:02.991Z,16.50
2022-09-21T08:48:24.056Z,15.80
2022-09-21T08:53:40.008Z,15.91
2022-09-21T08:58:43.453Z,15.78
2022-09-21T09:04:05.725Z,15.89
2022-09-21T09:09:33.925Z,16.32
2022-09-21T09:14:44.717Z,16.58
2022-09-21T09:19:54.404Z,16.45
2022-09-21T09:25:02.907Z,16.40
2022-09-21T09:30:30.373Z,16.65
2022-09-21T09:35:44.585Z,16.57
2022-09-21T09:40:53.735Z,16.17
2022-09-21T09:45:56.120Z,16.31
2022-09-21T09:50:58.465Z,17.29
2022-09-21T09:56:01.153Z,17.37
2022-09-21T10:01:03.526Z,17.44
2022-09-21T10:06:06.054Z,17.58
2022-09-21T10:11:09.512Z,17.52
2022-09-21T10:16:20.424Z,17.66
2022-09-21T10:21:35.613Z,17.82
2022-09-21T10:26:45.501Z,18.69
2022-09-21T10:32:02.919Z,18.59
2022-09-21T10:37:29.011Z,18.26
2022-09-21T10:42:36.335Z,16.93
2022-09-21T10:47:44.863Z,17.62
2022-09-21T10:52:47.436Z,17.51
2022-09-21T10:57:51.174Z,17.84
2022-09-21T11:02:55.022Z,16.30
2022-09-21T11:08:02.277Z,15.96
2022-09-21T11:13:29.782Z,15.88
2022-09-21T11:18:45.588Z,16.81
2022-09-21T11:23:58.171Z,17.44
2022-09-21T11:29:18.051Z,17.84
2022-09-21T11:34:41.084Z,18.08
2022-09-21T11:39:56.068Z,17.96
2022-09-21T11:45:01.263Z,18.46
2022-09-21T11:50:32.127Z,18.24
2022-09-21T11:55:52.885Z,17.78
2022-09-21T12:01:23.903Z,17.63
2022-09-21T12:07:08.581Z,17.74
2022-09-21T12:12:31.584Z,17.64
2022-09-21T12:17:58.530Z,17.62
2022-09-21T12:23:23.295Z,18.12
2022-09-21T12:28:38.803Z,18.00
2022-09-21T12:33:51.156Z,18.36
2022-09-21T12:39:18.453Z,18.64
2022-09-21T12:44:31.463Z,18.55
2022-09-21T12:49:33.553Z,17.78
2022-09-21T12:54:39.310Z,17.79
2022-09-21T12:59:50.281Z,18.24
2022-09-21T13:04:52.683Z,18.34
2022-09-21T13:09:54.729Z,18.77
2022-09-21T13:15:25.381Z,18.13
2022-09-21T13:20:33.043Z,17.78
2022-09-21T13:25:37.781Z,17.82
2022-09-21T13:30:43.241Z,17.77
2022-09-21T13:36:00.345Z,18.04
2022-09-21T13:41:21.164Z,17.85
2022-09-21T13:46:35.104Z,17.69
2022-09-21T13:52:20.810Z,17.69
2022-09-21T13:57:28.963Z,17.96
2022-09-21T14:02:35.342Z,17.39
2022-09-21T14:12:44.714Z,16.72
2022-09-21T14:18:16.358Z,16.33
2022-09-21T14:23:21.541Z,16.36
2022-09-21T14:28:38.953Z,16.14
2022-09-21T14:33:47.108Z,16.02
2022-09-21T14:39:02.369Z,16.33
2022-09-21T14:44:05.064Z,16.24
2022-09-21T14:49:35.257Z,16.43
2022-09-21T14:55:15.793Z,16.76
2022-09-21T15:00:26.552Z,16.75
2022-09-21T15:05:35.031Z,16.57
2022-09-21T15:10:59.888Z,16.79
2022-09-21T15:16:36.836Z,16.80
2022-09-21T15:21:43.568Z,16.42
2022-09-21T15:26:47.139Z,16.64
2022-09-21T15:31:50.738Z,16.55
2022-09-21T15:36:53.290Z,16.27
2022-09-21T15:42:20.161Z,16.00
2022-09-21T15:47:26.280Z,16.04
2022-09-21T15:52:38.034Z,15.84
2022-09-21T15:57:43.237Z,15.88
2022-09-21T16:03:19.537Z,15.77
2022-09-21T16:08:22.716Z,15.73
2022-09-21T16:13:43.745Z,15.49
2022-09-21T16:18:51.367Z,15.62
2022-09-21T16:23:57.356Z,15.68
2022-09-21T16:29:29.786Z,15.60
2022-09-21T16:34:40.021Z,15.55
2022-09-21T16:39:43.339Z,15.24
2022-09-21T16:44:47.096Z,15.04
2022-09-21T16:49:49.214Z,14.81
2022-09-21T16:54:51.801Z,14.26
2022-09-21T17:00:00.197Z,14.39
2022-09-21T17:05:09.556Z,14.20
2022-09-21T17:10:15.059Z,14.57
2022-09-21T17:15:17.273Z,14.47
2022-09-21T17:20:38.243Z,14.39
2022-09-21T17:25:40.262Z,14.67
2022-09-21T17:30:42.612Z,14.48
2022-09-21T17:35:44.923Z,14.71
2022-09-21T17:40:47.461Z,14.64
2022-09-21T17:46:21.852Z,14.62
2022-09-21T17:51:43.276Z,14.56
2022-09-21T17:56:51.858Z,14.59
2022-09-21T18:01:56.824Z,14.59
2022-09-21T18:07:03.729Z,14.37
2022-09-21T18:12:28.107Z,14.34
2022-09-21T18:17:59.346Z,14.22
2022-09-21T18:23:20.160Z,14.21
2022-09-21T18:28:40.450Z,14.03
2022-09-21T18:33:56.777Z,14.03
2022-09-21T18:38:59.622Z,13.65
2022-09-21T18:44:14.237Z,13.66
2022-09-21T18:49:52.251Z,13.58
2022-09-21T18:54:54.746Z,13.69
2022-09-21T18:59:57.100Z,13.55
2022-09-21T19:04:59.470Z,13.80
2022-09-21T19:10:35.401Z,13.85
2022-09-21T19:16:01.187Z,13.99
2022-09-21T19:21:09.585Z,13.83
2022-09-21T19:26:27.032Z,13.63
2022-09-21T19:31:36.146Z,13.58
2022-09-21T19:36:39.062Z,13.50
2022-09-21T19:42:06.941Z,13.45
2022-09-21T19:47:30.639Z,13.43
2022-09-21T19:52:35.910Z,13.30
2022-09-21T19:57:56.382Z,13.24
2022-09-21T20:03:25.230Z,13.16
2022-09-21T20:08:46.270Z,12.99
2022-09-21T20:13:54.199Z,12.89
2022-09-21T20:19:17.262Z,12.96
2022-09-21T20:24:29.527Z,13.11
2022-09-21T20:29:31.734Z,12.90
2022-09-21T20:34:33.956Z,13.25
2022-09-21T20:39:36.004Z,12.97
2022-09-21T20:44:37.923Z,12.91
2022-09-21T20:49:40.397Z,12.82
2022-09-21T20:54:49.257Z,13.03
2022-09-21T20:59:51.700Z,13.08
2022-09-21T21:04:53.563Z,13.17
2022-09-21T21:09:55.448Z,13.04
2022-09-21T21:14:59.382Z,13.21
2022-09-21T21:20:02.228Z,13.24
2022-09-21T21:25:04.892Z,13.31
2022-09-21T21:30:08.330Z,13.27
2022-09-21T21:35:10.241Z,13.24
2022-09-21T21:40:12.159Z,13.14
2022-09-21T21:45:14.141Z,13.07
2022-09-21T21:50:16.673Z,13.15
2022-09-21T21:55:18.525Z,12.91
2022-09-21T22:00:20.584Z,12.93
2022-09-21T22:05:22.773Z,12.93
2022-09-21T22:10:24.728Z,12.74
2022-09-21T22:15:27.364Z,12.79
2022-09-21T22:20:29.308Z,12.51
2022-09-21T22:25:31.368Z,12.48
2022-09-21T22:30:33.660Z,12.27
2022-09-21T22:35:35.551Z,12.42
2022-09-21T22:40:37.884Z,12.31
2022-09-21T22:45:39.768Z,12.41
2022-09-21T22:50:43.622Z,12.33
2022-09-21T22:55:45.613Z,12.27
2022-09-21T23:00:47.872Z,12.20
2022-09-21T23:05:58.090Z,11.91
2022-09-21T23:11:15.102Z,11.97
2022-09-21T23:16:17.988Z,11.87
2022-09-21T23:21:25.146Z,11.69
2022-09-21T23:26:28.702Z,11.48
2022-09-21T23:31:31.623Z,11.52
2022-09-21T23:36:34.601Z,11.54
2022-09-21T23:41:36.941Z,11.40
2022-09-21T23:46:39.881Z,11.25
2022-09-21T23:51:41.951Z,11.18
2022-09-21T23:56:44.020Z,11.24
